createdAt,value
2019-03-30T17:21:04.947Z,85.03
2019-03-30T17:24:08.868Z,84.97
2019-03-30T17:27:12.684Z,77.10
2019-03-30T17:30:16.921Z,75.30
2019-03-30T17:33:20.836Z,80.53
2019-03-30T17:36:24.715Z,80.37
2019-03-30T17:39:28.600Z,80.90
2019-03-30T17:42:32.486Z,75.80
2019-03-30T17:45:36.340Z,80.07
2019-03-30T17:48:40.196Z,94.17
2019-03-30T17:51:44.106Z,103.87
2019-03-30T17:54:47.968Z,101.00
2019-03-30T17:57:51.870Z,95.20
2019-03-30T18:00:55.750Z,85.30
2019-03-30T18:03:59.608Z,107.73
2019-03-30T18:07:03.538Z,132.27
2019-03-30T18:10:07.879Z,117.20
2019-03-30T18:13:11.708Z,110.30
2019-03-30T18:16:16.651Z,98.37
2019-03-30T18:19:20.471Z,89.73
2019-03-30T18:22:25.138Z,81.50
2019-03-30T18:25:29.071Z,87.33
2019-03-30T18:28:33.130Z,91.77
2019-03-30T18:31:36.980Z,95.50
2019-03-30T18:34:41.845Z,125.80
2019-03-30T18:37:45.876Z,164.47
2019-03-30T18:40:49.893Z,217.77
2019-03-30T18:43:53.805Z,188.13
2019-03-30T18:46:57.709Z,285.37
2019-03-30T18:50:01.567Z,396.40
2019-03-30T18:53:05.421Z,335.87
2019-03-30T18:56:09.535Z,254.13
2019-03-30T18:59:13.437Z,274.50
2019-03-30T19:02:19.182Z,222.27
2019-03-30T19:05:22.897Z,238.93
2019-03-30T19:08:26.774Z,257.90
2019-03-30T19:11:30.584Z,249.93
2019-03-30T19:14:35.955Z,229.30
2019-03-30T19:17:39.848Z,197.53
2019-03-30T19:20:43.689Z,179.03
2019-03-30T19:23:47.585Z,239.80
2019-03-30T19:26:51.445Z,284.30
2019-03-30T19:29:55.348Z,329.33
2019-03-30T19:33:01.073Z,282.17
2019-03-30T19:36:04.993Z,271.13
2019-03-30T19:39:09.575Z,240.70
2019-03-30T19:42:15.668Z,238.43
2019-03-30T19:45:19.173Z,192.23
2019-03-30T19:48:22.990Z,184.90
2019-03-30T19:51:26.990Z,179.53
2019-03-30T19:54:30.828Z,181.77
2019-03-30T19:57:36.200Z,170.50
2019-03-30T20:00:40.336Z,169.50
2019-03-30T20:03:44.368Z,178.57
2019-03-30T20:06:48.291Z,164.20
2019-03-30T20:09:52.159Z,163.10
2019-03-30T20:12:56.361Z,163.53
2019-03-30T20:16:00.280Z,164.17
2019-03-30T20:19:11.944Z,166.97
2019-03-30T20:22:09.681Z,181.20
2019-03-30T20:25:14.091Z,194.77
2019-03-30T20:28:17.975Z,192.17
2019-03-30T20:31:21.866Z,182.97
2019-03-30T20:34:25.700Z,232.47
2019-03-30T20:37:29.578Z,213.37
2019-03-30T20:40:33.472Z,219.40
2019-03-30T20:43:37.598Z,221.80
2019-03-30T20:46:43.665Z,212.77
2019-03-30T20:49:46.977Z,196.50
2019-03-30T20:52:50.866Z,205.53
2019-03-30T20:55:54.783Z,201.20
2019-03-30T20:58:58.669Z,187.73
2019-03-30T21:02:02.657Z,201.73
2019-03-30T21:05:07.225Z,201.47
2019-03-30T21:08:11.125Z,189.20
2019-03-30T21:11:14.985Z,187.40
2019-03-30T21:14:18.910Z,184.20
2019-03-30T21:17:22.744Z,179.93
2019-03-30T21:20:26.660Z,169.40
2019-03-30T21:23:30.527Z,171.37
2019-03-30T21:26:34.444Z,159.30
2019-03-30T21:29:38.337Z,158.97
2019-03-30T21:32:42.678Z,153.53
2019-03-30T21:35:46.553Z,168.97
2019-03-30T21:38:50.427Z,165.83
2019-03-30T21:41:54.285Z,184.60
2019-03-30T21:44:58.124Z,184.77
2019-03-30T21:48:02.008Z,178.77
2019-03-30T21:51:05.859Z,194.53
2019-03-30T21:54:09.710Z,192.93
2019-03-30T21:57:13.610Z,197.10
2019-03-30T22:00:34.835Z,189.80
2019-03-30T22:03:38.778Z,180.77
2019-03-30T22:06:43.250Z,178.67
2019-03-30T22:09:47.132Z,161.23
2019-03-30T22:12:51.009Z,164.80
2019-03-30T22:15:54.845Z,153.97
2019-03-30T22:18:58.782Z,137.00
2019-03-30T22:22:02.653Z,133.60
2019-03-30T22:25:07.154Z,141.20
2019-03-30T22:28:11.050Z,149.27
2019-03-30T22:31:14.948Z,152.80
2019-03-30T22:34:18.798Z,148.03
2019-03-30T22:37:22.645Z,156.07
2019-03-30T22:40:26.566Z,151.80
2019-03-30T22:43:30.517Z,203.33
2019-03-30T22:46:34.388Z,227.83
2019-03-30T22:49:38.325Z,230.00
2019-03-30T22:52:42.170Z,211.90
2019-03-30T22:55:46.049Z,212.93
2019-03-30T22:58:49.970Z,210.93
2019-03-30T23:01:53.851Z,199.60
2019-03-30T23:04:57.684Z,175.73
2019-03-30T23:08:01.808Z,173.97
2019-03-30T23:11:05.744Z,169.43
2019-03-30T23:14:09.575Z,145.30
2019-03-30T23:17:13.455Z,144.90
2019-03-30T23:20:17.339Z,145.23
2019-03-30T23:23:21.248Z,132.70
2019-03-30T23:26:25.085Z,108.97
2019-03-30T23:29:28.949Z,118.23
2019-03-30T23:32:32.825Z,103.00
2019-03-30T23:35:36.650Z,105.07
2019-03-30T23:38:40.532Z,105.20
2019-03-30T23:41:44.348Z,112.37
2019-03-30T23:44:48.230Z,112.20
2019-03-30T23:47:52.136Z,112.20
2019-03-30T23:50:55.952Z,118.13
2019-03-30T23:53:59.800Z,122.23
2019-03-30T23:57:03.701Z,111.87
